sensor_id;sensor_type;location;lat;lon;timestamp;temperature;humidity
18456;DHT22;9357;49.900;8.208;2023-11-21T00:00:47;9.70;99.90
18456;DHT22;9357;49.900;8.208;2023-11-21T00:02:19;9.80;99.90
18456;DHT22;9357;49.900;8.208;2023-11-21T00:03:53;9.70;99.90
18456;DHT22;9357;49.900;8.208;2023-11-21T00:05:26;9.70;99.90
18456;DHT22;9357;49.900;8.208;2023-11-21T00:06:58;9.70;99.90
18456;DHT22;9357;49.900;8.208;2023-11-21T00:08:31;9.70;99.90
18456;DHT22;9357;49.900;8.208;2023-11-21T00:10:03;9.70;99.90
18456;DHT22;9357;49.900;8.208;2023-11-21T00:11:37;9.70;99.90
18456;DHT22;9357;49.900;8.208;2023-11-21T00:13:09;9.70;99.90
18456;DHT22;9357;49.900;8.208;2023-11-21T00:14:44;9.70;99.90
18456;DHT22;9357;49.900;8.208;2023-11-21T00:16:15;9.70;99.90
18456;DHT22;9357;49.900;8.208;2023-11-21T00:17:48;9.70;99.90
18456;DHT22;9357;49.900;8.208;2023-11-21T00:19:22;9.70;99.90
18456;DHT22;9357;49.900;8.208;2023-11-21T00:20:55;9.70;99.90
18456;DHT22;9357;49.900;8.208;2023-11-21T00:22:26;9.70;99.90
18456;DHT22;9357;49.900;8.208;2023-11-21T00:23:59;9.70;99.90
18456;DHT22;9357;49.900;8.208;2023-11-21T00:25:31;9.70;99.90
18456;DHT22;9357;49.900;8.208;2023-11-21T00:27:04;9.70;99.90
18456;DHT22;9357;49.900;8.208;2023-11-21T00:28:37;9.70;99.90
18456;DHT22;9357;49.900;8.208;2023-11-21T00:30:11;9.70;99.90
18456;DHT22;9357;49.900;8.208;2023-11-21T00:31:43;9.70;99.90
18456;DHT22;9357;49.900;8.208;2023-11-21T00:33:16;9.60;99.90
18456;DHT22;9357;49.900;8.208;2023-11-21T00:34:49;9.70;99.90
18456;DHT22;9357;49.900;8.208;2023-11-21T00:36:22;9.70;99.90
18456;DHT22;9357;49.900;8.208;2023-11-21T00:37:54;9.70;99.90
18456;DHT22;9357;49.900;8.208;2023-11-21T00:39:26;9.70;99.90
18456;DHT22;9357;49.900;8.208;2023-11-21T00:40:58;9.60;99.90
18456;DHT22;9357;49.900;8.208;2023-11-21T00:42:31;9.60;99.90
18456;DHT22;9357;49.900;8.208;2023-11-21T00:44:05;9.70;99.90
18456;DHT22;9357;49.900;8.208;2023-11-21T00:45:38;9.70;99.90
18456;DHT22;9357;49.900;8.208;2023-11-21T00:47:11;9.60;99.90
18456;DHT22;9357;49.900;8.208;2023-11-21T00:48:44;9.70;99.90
18456;DHT22;9357;49.900;8.208;2023-11-21T00:50:17;9.70;99.90
18456;DHT22;9357;49.900;8.208;2023-11-21T00:51:50;9.70;99.90
18456;DHT22;9357;49.900;8.208;2023-11-21T00:53:22;9.60;99.90
18456;DHT22;9357;49.900;8.208;2023-11-21T00:54:55;9.60;99.90
18456;DHT22;9357;49.900;8.208;2023-11-21T00:56:27;9.60;99.90
18456;DHT22;9357;49.900;8.208;2023-11-21T00:58:00;9.60;99.90
18456;DHT22;9357;49.900;8.208;2023-11-21T00:59:35;9.60;99.90
18456;DHT22;9357;49.900;8.208;2023-11-21T01:01:07;9.70;99.90
18456;DHT22;9357;49.900;8.208;2023-11-21T01:02:39;9.60;99.90
18456;DHT22;9357;49.900;8.208;2023-11-21T01:04:11;9.70;99.90
18456;DHT22;9357;49.900;8.208;2023-11-21T01:05:46;9.70;99.90
18456;DHT22;9357;49.900;8.208;2023-11-21T01:07:21;9.70;99.90
18456;DHT22;9357;49.900;8.208;2023-11-21T01:08:53;9.70;99.90
18456;DHT22;9357;49.900;8.208;2023-11-21T01:10:26;9.70;99.90
18456;DHT22;9357;49.900;8.208;2023-11-21T01:11:58;9.70;99.90
18456;DHT22;9357;49.900;8.208;2023-11-21T01:13:31;9.70;99.90
18456;DHT22;9357;49.900;8.208;2023-11-21T01:15:03;9.70;99.90
18456;DHT22;9357;49.900;8.208;2023-11-21T01:16:38;9.70;99.90
18456;DHT22;9357;49.900;8.208;2023-11-21T01:18:10;9.70;99.90
18456;DHT22;9357;49.900;8.208;2023-11-21T01:19:43;9.70;99.90
18456;DHT22;9357;49.900;8.208;2023-11-21T01:21:16;9.80;99.90
18456;DHT22;9357;49.900;8.208;2023-11-21T01:22:49;9.80;99.90
18456;DHT22;9357;49.900;8.208;2023-11-21T01:24:21;9.80;99.90
18456;DHT22;9357;49.900;8.208;2023-11-21T01:25:56;9.80;99.90
18456;DHT22;9357;49.900;8.208;2023-11-21T01:27:28;9.80;99.90
18456;DHT22;9357;49.900;8.208;2023-11-21T01:29:01;9.80;99.90
18456;DHT22;9357;49.900;8.208;2023-11-21T01:30:32;9.80;99.90
18456;DHT22;9357;49.900;8.208;2023-11-21T01:32:06;9.80;99.90
18456;DHT22;9357;49.900;8.208;2023-11-21T01:33:39;9.80;99.90
18456;DHT22;9357;49.900;8.208;2023-11-21T01:35:12;9.80;99.90
18456;DHT22;9357;49.900;8.208;2023-11-21T01:36:46;9.90;99.90
18456;DHT22;9357;49.900;8.208;2023-11-21T01:38:19;9.90;99.90
18456;DHT22;9357;49.900;8.208;2023-11-21T01:39:52;9.90;99.90
18456;DHT22;9357;49.900;8.208;2023-11-21T01:41:24;9.90;99.90
18456;DHT22;9357;49.900;8.208;2023-11-21T01:42:58;9.90;99.90
18456;DHT22;9357;49.900;8.208;2023-11-21T01:44:31;9.90;99.90
18456;DHT22;9357;49.900;8.208;2023-11-21T01:46:03;9.90;99.90
18456;DHT22;9357;49.900;8.208;2023-11-21T01:47:38;9.90;99.90
18456;DHT22;9357;49.900;8.208;2023-11-21T01:49:10;9.90;99.90
18456;DHT22;9357;49.900;8.208;2023-11-21T01:50:45;9.90;99.90
18456;DHT22;9357;49.900;8.208;2023-11-21T01:52:19;9.90;99.90
18456;DHT22;9357;49.900;8.208;2023-11-21T01:53:51;9.90;99.90
18456;DHT22;9357;49.900;8.208;2023-11-21T01:55:24;9.90;99.90
18456;DHT22;9357;49.900;8.208;2023-11-21T01:57:00;9.90;99.90
18456;DHT22;9357;49.900;8.208;2023-11-21T01:58:34;10.00;99.90
18456;DHT22;9357;49.900;8.208;2023-11-21T02:00:07;9.90;99.90
18456;DHT22;9357;49.900;8.208;2023-11-21T02:01:47;9.90;99.90
18456;DHT22;9357;49.900;8.208;2023-11-21T02:03:18;10.00;99.90
18456;DHT22;9357;49.900;8.208;2023-11-21T02:04:52;10.00;99.90
18456;DHT22;9357;49.900;8.208;2023-11-21T02:06:24;10.00;99.90
18456;DHT22;9357;49.900;8.208;2023-11-21T02:07:58;10.00;99.90
18456;DHT22;9357;49.900;8.208;2023-11-21T02:09:30;10.00;99.90
18456;DHT22;9357;49.900;8.208;2023-11-21T02:11:03;10.00;99.90
18456;DHT22;9357;49.900;8.208;2023-11-21T02:12:35;10.00;99.90
18456;DHT22;9357;49.900;8.208;2023-11-21T02:14:10;10.00;99.90
18456;DHT22;9357;49.900;8.208;2023-11-21T02:15:42;10.00;99.90
18456;DHT22;9357;49.900;8.208;2023-11-21T02:17:15;10.00;99.90
18456;DHT22;9357;49.900;8.208;2023-11-21T02:18:47;10.00;99.90
18456;DHT22;9357;49.900;8.208;2023-11-21T02:20:21;10.00;99.90
18456;DHT22;9357;49.900;8.208;2023-11-21T02:21:56;10.00;99.90
18456;DHT22;9357;49.900;8.208;2023-11-21T02:23:33;10.00;99.90
18456;DHT22;9357;49.900;8.208;2023-11-21T02:25:06;10.00;99.90
18456;DHT22;9357;49.900;8.208;2023-11-21T02:26:39;10.10;99.90
18456;DHT22;9357;49.900;8.208;2023-11-21T02:28:12;10.10;99.90
18456;DHT22;9357;49.900;8.208;2023-11-21T02:29:47;10.10;99.90
18456;DHT22;9357;49.900;8.208;2023-11-21T02:31:19;10.10;99.90
18456;DHT22;9357;49.900;8.208;2023-11-21T02:32:51;10.10;99.90
18456;DHT22;9357;49.900;8.208;2023-11-21T02:34:25;10.10;99.90
18456;DHT22;9357;49.900;8.208;2023-11-21T02:35:57;10.10;99.90
18456;DHT22;9357;49.900;8.208;2023-11-21T02:37:31;10.10;99.90
18456;DHT22;9357;49.900;8.208;2023-11-21T02:39:04;10.10;99.90
18456;DHT22;9357;49.900;8.208;2023-11-21T02:40:38;10.10;99.90
18456;DHT22;9357;49.900;8.208;2023-11-21T02:42:10;10.10;99.90
18456;DHT22;9357;49.900;8.208;2023-11-21T02:43:43;10.10;99.90
18456;DHT22;9357;49.900;8.208;2023-11-21T02:45:15;10.10;99.90
18456;DHT22;9357;49.900;8.208;2023-11-21T02:46:48;10.10;99.90
18456;DHT22;9357;49.900;8.208;2023-11-21T02:48:20;10.10;99.90
18456;DHT22;9357;49.900;8.208;2023-11-21T02:49:55;10.10;99.90
18456;DHT22;9357;49.900;8.208;2023-11-21T02:51:28;10.10;99.90
18456;DHT22;9357;49.900;8.208;2023-11-21T02:53:01;10.10;99.90
18456;DHT22;9357;49.900;8.208;2023-11-21T02:54:34;10.10;99.90
18456;DHT22;9357;49.900;8.208;2023-11-21T02:56:08;10.20;99.90
18456;DHT22;9357;49.900;8.208;2023-11-21T02:57:40;10.20;99.90
18456;DHT22;9357;49.900;8.208;2023-11-21T02:59:13;10.20;99.90
18456;DHT22;9357;49.900;8.208;2023-11-21T03:00:44;10.20;99.90
18456;DHT22;9357;49.900;8.208;2023-11-21T03:02:17;10.20;99.90
18456;DHT22;9357;49.900;8.208;2023-11-21T03:03:49;10.20;99.90
18456;DHT22;9357;49.900;8.208;2023-11-21T03:05:22;10.20;99.90
18456;DHT22;9357;49.900;8.208;2023-11-21T03:06:54;10.20;99.90
18456;DHT22;9357;49.900;8.208;2023-11-21T03:08:27;10.10;99.90
18456;DHT22;9357;49.900;8.208;2023-11-21T03:10:00;10.20;99.90
18456;DHT22;9357;49.900;8.208;2023-11-21T03:11:33;10.20;99.90
18456;DHT22;9357;49.900;8.208;2023-11-21T03:13:05;10.20;99.90
18456;DHT22;9357;49.900;8.208;2023-11-21T03:14:37;10.20;99.90
18456;DHT22;9357;49.900;8.208;2023-11-21T03:16:11;10.20;99.90
18456;DHT22;9357;49.900;8.208;2023-11-21T03:17:43;10.20;99.90
18456;DHT22;9357;49.900;8.208;2023-11-21T03:19:16;10.20;99.90
18456;DHT22;9357;49.900;8.208;2023-11-21T03:20:48;10.20;99.90
18456;DHT22;9357;49.900;8.208;2023-11-21T03:22:21;10.20;99.90
18456;DHT22;9357;49.900;8.208;2023-11-21T03:23:53;10.20;99.90
18456;DHT22;9357;49.900;8.208;2023-11-21T03:25:27;10.20;99.90
18456;DHT22;9357;49.900;8.208;2023-11-21T03:26:59;10.10;99.90
18456;DHT22;9357;49.900;8.208;2023-11-21T03:28:32;10.10;99.90
18456;DHT22;9357;49.900;8.208;2023-11-21T03:30:04;10.10;99.90
18456;DHT22;9357;49.900;8.208;2023-11-21T03:31:38;10.10;99.90
18456;DHT22;9357;49.900;8.208;2023-11-21T03:33:10;10.10;99.90
18456;DHT22;9357;49.900;8.208;2023-11-21T03:34:54;10.10;99.90
18456;DHT22;9357;49.900;8.208;2023-11-21T03:36:27;10.10;99.90
18456;DHT22;9357;49.900;8.208;2023-11-21T03:37:59;10.10;99.90
18456;DHT22;9357;49.900;8.208;2023-11-21T03:39:31;10.10;99.90
18456;DHT22;9357;49.900;8.208;2023-11-21T03:41:06;10.10;99.90
18456;DHT22;9357;49.900;8.208;2023-11-21T03:42:38;10.10;99.90
18456;DHT22;9357;49.900;8.208;2023-11-21T03:44:11;10.10;99.90
18456;DHT22;9357;49.900;8.208;2023-11-21T03:45:44;10.10;99.90
18456;DHT22;9357;49.900;8.208;2023-11-21T03:47:15;10.10;99.90
18456;DHT22;9357;49.900;8.208;2023-11-21T03:48:48;10.00;99.90
18456;DHT22;9357;49.900;8.208;2023-11-21T03:50:21;10.00;99.90
18456;DHT22;9357;49.900;8.208;2023-11-21T03:51:53;10.10;99.90
18456;DHT22;9357;49.900;8.208;2023-11-21T03:53:25;10.00;99.90
18456;DHT22;9357;49.900;8.208;2023-11-21T03:54:57;10.00;99.90
18456;DHT22;9357;49.900;8.208;2023-11-21T03:56:31;10.00;99.90
18456;DHT22;9357;49.900;8.208;2023-11-21T03:58:03;10.00;99.90
18456;DHT22;9357;49.900;8.208;2023-11-21T03:59:36;10.00;99.90
18456;DHT22;9357;49.900;8.208;2023-11-21T04:01:07;10.00;99.90
18456;DHT22;9357;49.900;8.208;2023-11-21T04:02:40;9.90;99.90
18456;DHT22;9357;49.900;8.208;2023-11-21T04:04:12;9.90;99.90
18456;DHT22;9357;49.900;8.208;2023-11-21T04:05:45;9.90;99.90
18456;DHT22;9357;49.900;8.208;2023-11-21T04:07:17;9.80;99.90
18456;DHT22;9357;49.900;8.208;2023-11-21T04:08:50;9.80;99.90
18456;DHT22;9357;49.900;8.208;2023-11-21T04:10:22;9.80;99.90
18456;DHT22;9357;49.900;8.208;2023-11-21T04:11:56;9.80;99.90
18456;DHT22;9357;49.900;8.208;2023-11-21T04:13:27;9.80;99.90
18456;DHT22;9357;49.900;8.208;2023-11-21T04:15:00;9.70;99.90
18456;DHT22;9357;49.900;8.208;2023-11-21T04:16:32;9.70;99.90
18456;DHT22;9357;49.900;8.208;2023-11-21T04:18:05;9.70;99.90
18456;DHT22;9357;49.900;8.208;2023-11-21T04:19:38;9.60;99.90
18456;DHT22;9357;49.900;8.208;2023-11-21T04:21:10;9.70;99.90
18456;DHT22;9357;49.900;8.208;2023-11-21T04:22:44;9.60;99.90
18456;DHT22;9357;49.900;8.208;2023-11-21T04:24:16;9.60;99.90
18456;DHT22;9357;49.900;8.208;2023-11-21T04:25:49;9.60;99.90
18456;DHT22;9357;49.900;8.208;2023-11-21T04:27:23;9.60;99.90
18456;DHT22;9357;49.900;8.208;2023-11-21T04:28:55;9.50;99.90
18456;DHT22;9357;49.900;8.208;2023-11-21T04:30:28;9.50;99.90
18456;DHT22;9357;49.900;8.208;2023-11-21T04:31:59;9.50;99.90
18456;DHT22;9357;49.900;8.208;2023-11-21T04:33:32;9.40;99.90
18456;DHT22;9357;49.900;8.208;2023-11-21T04:35:05;9.40;99.90
18456;DHT22;9357;49.900;8.208;2023-11-21T04:36:38;9.40;99.90
18456;DHT22;9357;49.900;8.208;2023-11-21T04:38:11;9.30;99.90
18456;DHT22;9357;49.900;8.208;2023-11-21T04:39:43;9.30;99.90
18456;DHT22;9357;49.900;8.208;2023-11-21T04:41:16;9.30;99.90
18456;DHT22;9357;49.900;8.208;2023-11-21T04:42:50;9.30;99.90
18456;DHT22;9357;49.900;8.208;2023-11-21T04:44:22;9.20;99.90
18456;DHT22;9357;49.900;8.208;2023-11-21T04:45:55;9.20;99.90
18456;DHT22;9357;49.900;8.208;2023-11-21T04:47:27;9.20;99.90
18456;DHT22;9357;49.900;8.208;2023-11-21T04:49:00;9.20;99.90
18456;DHT22;9357;49.900;8.208;2023-11-21T04:50:33;9.20;99.90
18456;DHT22;9357;49.900;8.208;2023-11-21T04:52:06;9.20;99.90
18456;DHT22;9357;49.900;8.208;2023-11-21T04:53:39;9.20;99.90
18456;DHT22;9357;49.900;8.208;2023-11-21T04:55:12;9.20;99.90
18456;DHT22;9357;49.900;8.208;2023-11-21T04:56:44;9.20;99.90
18456;DHT22;9357;49.900;8.208;2023-11-21T04:58:18;9.20;99.90
18456;DHT22;9357;49.900;8.208;2023-11-21T04:59:52;9.20;99.90
18456;DHT22;9357;49.900;8.208;2023-11-21T05:01:24;9.20;99.90
18456;DHT22;9357;49.900;8.208;2023-11-21T05:02:57;9.20;99.90
18456;DHT22;9357;49.900;8.208;2023-11-21T05:04:29;9.20;99.90
18456;DHT22;9357;49.900;8.208;2023-11-21T05:06:02;9.20;99.90
18456;DHT22;9357;49.900;8.208;2023-11-21T05:07:34;9.20;99.90
18456;DHT22;9357;49.900;8.208;2023-11-21T05:09:07;9.30;99.90
18456;DHT22;9357;49.900;8.208;2023-11-21T05:10:43;9.30;99.90
18456;DHT22;9357;49.900;8.208;2023-11-21T05:12:16;9.30;99.90
18456;DHT22;9357;49.900;8.208;2023-11-21T05:13:49;9.30;99.90
18456;DHT22;9357;49.900;8.208;2023-11-21T05:15:22;9.30;99.90
18456;DHT22;9357;49.900;8.208;2023-11-21T05:16:55;9.30;99.90
18456;DHT22;9357;49.900;8.208;2023-11-21T05:18:28;9.30;99.90
18456;DHT22;9357;49.900;8.208;2023-11-21T05:20:02;9.30;99.90
18456;DHT22;9357;49.900;8.208;2023-11-21T05:21:35;9.30;99.90
18456;DHT22;9357;49.900;8.208;2023-11-21T05:23:08;9.40;99.90
18456;DHT22;9357;49.900;8.208;2023-11-21T05:24:40;9.40;99.90
18456;DHT22;9357;49.900;8.208;2023-11-21T05:26:12;9.40;99.90
18456;DHT22;9357;49.900;8.208;2023-11-21T05:27:45;9.40;99.90
18456;DHT22;9357;49.900;8.208;2023-11-21T05:29:18;9.40;99.90
18456;DHT22;9357;49.900;8.208;2023-11-21T05:30:51;9.40;99.90
18456;DHT22;9357;49.900;8.208;2023-11-21T05:32:38;9.40;99.90
18456;DHT22;9357;49.900;8.208;2023-11-21T05:34:11;9.50;99.90
18456;DHT22;9357;49.900;8.208;2023-11-21T05:35:44;9.40;99.90
18456;DHT22;9357;49.900;8.208;2023-11-21T05:37:16;9.40;99.90
18456;DHT22;9357;49.900;8.208;2023-11-21T05:38:49;9.50;99.90
18456;DHT22;9357;49.900;8.208;2023-11-21T05:40:22;9.50;99.90
18456;DHT22;9357;49.900;8.208;2023-11-21T05:41:54;9.50;99.90
18456;DHT22;9357;49.900;8.208;2023-11-21T05:43:29;9.50;99.90
18456;DHT22;9357;49.900;8.208;2023-11-21T05:45:04;9.50;99.90
18456;DHT22;9357;49.900;8.208;2023-11-21T05:46:41;9.50;99.90
18456;DHT22;9357;49.900;8.208;2023-11-21T05:48:14;9.50;99.90
18456;DHT22;9357;49.900;8.208;2023-11-21T05:49:47;9.60;99.90
18456;DHT22;9357;49.900;8.208;2023-11-21T05:51:22;9.50;99.90
18456;DHT22;9357;49.900;8.208;2023-11-21T05:52:56;9.50;99.90
18456;DHT22;9357;49.900;8.208;2023-11-21T05:54:29;9.50;99.90
18456;DHT22;9357;49.900;8.208;2023-11-21T05:56:02;9.50;99.90
18456;DHT22;9357;49.900;8.208;2023-11-21T05:57:36;9.50;99.90
18456;DHT22;9357;49.900;8.208;2023-11-21T05:59:09;9.50;99.90
18456;DHT22;9357;49.900;8.208;2023-11-21T06:00:43;9.50;99.90
18456;DHT22;9357;49.900;8.208;2023-11-21T06:02:15;9.50;99.90
18456;DHT22;9357;49.900;8.208;2023-11-21T06:03:47;9.50;99.90
18456;DHT22;9357;49.900;8.208;2023-11-21T06:05:23;9.50;99.90
18456;DHT22;9357;49.900;8.208;2023-11-21T06:06:55;9.50;99.90
18456;DHT22;9357;49.900;8.208;2023-11-21T06:08:27;9.50;99.90
18456;DHT22;9357;49.900;8.208;2023-11-21T06:09:59;9.50;99.90
18456;DHT22;9357;49.900;8.208;2023-11-21T06:11:34;9.50;99.90
18456;DHT22;9357;49.900;8.208;2023-11-21T06:13:06;9.50;99.90
18456;DHT22;9357;49.900;8.208;2023-11-21T06:14:39;9.50;99.90
18456;DHT22;9357;49.900;8.208;2023-11-21T06:16:12;9.50;99.90
18456;DHT22;9357;49.900;8.208;2023-11-21T06:17:48;9.50;99.90
18456;DHT22;9357;49.900;8.208;2023-11-21T06:19:23;9.60;99.90
18456;DHT22;9357;49.900;8.208;2023-11-21T06:20:56;9.50;99.90
18456;DHT22;9357;49.900;8.208;2023-11-21T06:22:28;9.60;99.90
18456;DHT22;9357;49.900;8.208;2023-11-21T06:24:02;9.60;99.90
18456;DHT22;9357;49.900;8.208;2023-11-21T06:25:34;9.60;99.90
18456;DHT22;9357;49.900;8.208;2023-11-21T06:27:08;9.60;99.90
18456;DHT22;9357;49.900;8.208;2023-11-21T06:28:39;9.60;99.90
18456;DHT22;9357;49.900;8.208;2023-11-21T06:30:13;9.60;99.90
18456;DHT22;9357;49.900;8.208;2023-11-21T06:31:47;9.50;99.90
18456;DHT22;9357;49.900;8.208;2023-11-21T06:33:19;9.50;99.90
18456;DHT22;9357;49.900;8.208;2023-11-21T06:34:53;9.50;99.90
18456;DHT22;9357;49.900;8.208;2023-11-21T06:36:26;9.50;99.90
18456;DHT22;9357;49.900;8.208;2023-11-21T06:37:58;9.50;99.90
18456;DHT22;9357;49.900;8.208;2023-11-21T06:39:31;9.50;99.90
18456;DHT22;9357;49.900;8.208;2023-11-21T06:41:03;9.50;99.90
18456;DHT22;9357;49.900;8.208;2023-11-21T06:42:36;9.50;99.90
18456;DHT22;9357;49.900;8.208;2023-11-21T06:44:09;9.40;99.90
18456;DHT22;9357;49.900;8.208;2023-11-21T06:45:42;9.40;99.90
18456;DHT22;9357;49.900;8.208;2023-11-21T06:47:16;9.40;99.90
18456;DHT22;9357;49.900;8.208;2023-11-21T06:48:49;9.40;99.90
18456;DHT22;9357;49.900;8.208;2023-11-21T06:50:22;9.40;99.90
18456;DHT22;9357;49.900;8.208;2023-11-21T06:51:54;9.30;99.90
18456;DHT22;9357;49.900;8.208;2023-11-21T06:53:27;9.30;99.90
18456;DHT22;9357;49.900;8.208;2023-11-21T06:54:59;9.30;99.90
18456;DHT22;9357;49.900;8.208;2023-11-21T06:56:31;9.30;99.90
18456;DHT22;9357;49.900;8.208;2023-11-21T06:58:04;9.30;99.90
18456;DHT22;9357;49.900;8.208;2023-11-21T06:59:37;9.30;99.90
18456;DHT22;9357;49.900;8.208;2023-11-21T07:01:09;9.30;99.90
18456;DHT22;9357;49.900;8.208;2023-11-21T07:02:43;9.30;99.90
18456;DHT22;9357;49.900;8.208;2023-11-21T07:04:16;9.30;99.90
18456;DHT22;9357;49.900;8.208;2023-11-21T07:05:50;9.30;99.90
18456;DHT22;9357;49.900;8.208;2023-11-21T07:07:22;9.30;99.90
18456;DHT22;9357;49.900;8.208;2023-11-21T07:08:54;9.30;99.90
18456;DHT22;9357;49.900;8.208;2023-11-21T07:10:27;9.30;99.90
18456;DHT22;9357;49.900;8.208;2023-11-21T07:11:59;9.30;99.90
18456;DHT22;9357;49.900;8.208;2023-11-21T07:13:31;9.30;99.90
18456;DHT22;9357;49.900;8.208;2023-11-21T07:15:05;9.30;99.90
18456;DHT22;9357;49.900;8.208;2023-11-21T07:16:40;9.30;99.90
18456;DHT22;9357;49.900;8.208;2023-11-21T07:18:14;9.30;99.90
18456;DHT22;9357;49.900;8.208;2023-11-21T07:19:47;9.30;99.90
18456;DHT22;9357;49.900;8.208;2023-11-21T07:21:19;9.30;99.90
18456;DHT22;9357;49.900;8.208;2023-11-21T07:22:52;9.30;99.90
18456;DHT22;9357;49.900;8.208;2023-11-21T07:24:25;9.30;99.90
18456;DHT22;9357;49.900;8.208;2023-11-21T07:25:58;9.30;99.90
18456;DHT22;9357;49.900;8.208;2023-11-21T07:27:30;9.30;99.90
18456;DHT22;9357;49.900;8.208;2023-11-21T07:29:05;9.30;99.90
18456;DHT22;9357;49.900;8.208;2023-11-21T07:30:37;9.30;99.90
18456;DHT22;9357;49.900;8.208;2023-11-21T07:32:10;9.40;99.90
18456;DHT22;9357;49.900;8.208;2023-11-21T07:33:44;9.30;99.90
18456;DHT22;9357;49.900;8.208;2023-11-21T07:35:18;9.40;99.90
18456;DHT22;9357;49.900;8.208;2023-11-21T07:36:50;9.30;99.90
18456;DHT22;9357;49.900;8.208;2023-11-21T07:38:23;9.40;99.90
18456;DHT22;9357;49.900;8.208;2023-11-21T07:39:55;9.30;99.90
18456;DHT22;9357;49.900;8.208;2023-11-21T07:41:27;9.40;99.90
18456;DHT22;9357;49.900;8.208;2023-11-21T07:43:02;9.40;99.90
18456;DHT22;9357;49.900;8.208;2023-11-21T07:44:35;9.40;99.90
18456;DHT22;9357;49.900;8.208;2023-11-21T07:46:08;9.40;99.90
18456;DHT22;9357;49.900;8.208;2023-11-21T07:47:40;9.40;99.90
18456;DHT22;9357;49.900;8.208;2023-11-21T07:49:14;9.40;99.90
18456;DHT22;9357;49.900;8.208;2023-11-21T07:50:48;9.40;99.90
18456;DHT22;9357;49.900;8.208;2023-11-21T07:52:21;9.40;99.90
18456;DHT22;9357;49.900;8.208;2023-11-21T07:53:53;9.40;99.90
18456;DHT22;9357;49.900;8.208;2023-11-21T07:55:26;9.50;99.90
18456;DHT22;9357;49.900;8.208;2023-11-21T07:56:58;9.50;99.90
18456;DHT22;9357;49.900;8.208;2023-11-21T07:58:30;9.50;99.90
18456;DHT22;9357;49.900;8.208;2023-11-21T08:00:06;9.50;99.90
18456;DHT22;9357;49.900;8.208;2023-11-21T08:01:40;9.50;99.90
18456;DHT22;9357;49.900;8.208;2023-11-21T08:03:15;9.50;99.90
18456;DHT22;9357;49.900;8.208;2023-11-21T08:04:48;9.60;99.90
18456;DHT22;9357;49.900;8.208;2023-11-21T08:06:22;9.60;99.90
18456;DHT22;9357;49.900;8.208;2023-11-21T08:07:53;9.50;99.90
18456;DHT22;9357;49.900;8.208;2023-11-21T08:09:26;9.60;99.90
18456;DHT22;9357;49.900;8.208;2023-11-21T08:10:58;9.50;99.90
18456;DHT22;9357;49.900;8.208;2023-11-21T08:12:33;9.50;99.90
18456;DHT22;9357;49.900;8.208;2023-11-21T08:14:05;9.60;99.90
18456;DHT22;9357;49.900;8.208;2023-11-21T08:15:38;9.60;99.90
18456;DHT22;9357;49.900;8.208;2023-11-21T08:17:10;9.60;99.90
18456;DHT22;9357;49.900;8.208;2023-11-21T08:18:44;9.60;99.90
18456;DHT22;9357;49.900;8.208;2023-11-21T08:20:18;9.60;99.90
18456;DHT22;9357;49.900;8.208;2023-11-21T08:21:51;9.60;99.90
18456;DHT22;9357;49.900;8.208;2023-11-21T08:23:26;9.60;99.90
18456;DHT22;9357;49.900;8.208;2023-11-21T08:24:58;9.60;99.90
18456;DHT22;9357;49.900;8.208;2023-11-21T08:26:30;9.70;99.90
18456;DHT22;9357;49.900;8.208;2023-11-21T08:28:03;9.70;99.90
18456;DHT22;9357;49.900;8.208;2023-11-21T08:29:37;9.70;99.90
18456;DHT22;9357;49.900;8.208;2023-11-21T08:31:09;9.70;99.90
18456;DHT22;9357;49.900;8.208;2023-11-21T08:32:44;9.80;99.90
18456;DHT22;9357;49.900;8.208;2023-11-21T08:34:16;9.80;99.90
18456;DHT22;9357;49.900;8.208;2023-11-21T08:35:50;9.80;99.90
18456;DHT22;9357;49.900;8.208;2023-11-21T08:37:23;9.80;99.90
18456;DHT22;9357;49.900;8.208;2023-11-21T08:38:55;9.80;99.90
18456;DHT22;9357;49.900;8.208;2023-11-21T08:40:28;9.90;99.90
18456;DHT22;9357;49.900;8.208;2023-11-21T08:42:00;9.90;99.90
18456;DHT22;9357;49.900;8.208;2023-11-21T08:43:34;9.90;99.90
18456;DHT22;9357;49.900;8.208;2023-11-21T08:45:07;9.90;99.90
18456;DHT22;9357;49.900;8.208;2023-11-21T08:46:40;9.90;99.90
18456;DHT22;9357;49.900;8.208;2023-11-21T08:48:13;10.00;99.90
18456;DHT22;9357;49.900;8.208;2023-11-21T08:49:46;10.00;99.90
18456;DHT22;9357;49.900;8.208;2023-11-21T08:51:20;10.00;99.90
18456;DHT22;9357;49.900;8.208;2023-11-21T08:52:53;10.00;99.90
18456;DHT22;9357;49.900;8.208;2023-11-21T08:54:25;10.10;99.90
18456;DHT22;9357;49.900;8.208;2023-11-21T08:55:58;10.10;99.90
18456;DHT22;9357;49.900;8.208;2023-11-21T08:57:30;10.10;99.90
18456;DHT22;9357;49.900;8.208;2023-11-21T08:59:03;10.10;99.90
18456;DHT22;9357;49.900;8.208;2023-11-21T09:00:35;10.10;99.90
18456;DHT22;9357;49.900;8.208;2023-11-21T09:02:07;10.10;99.90
18456;DHT22;9357;49.900;8.208;2023-11-21T09:03:39;10.10;99.90
18456;DHT22;9357;49.900;8.208;2023-11-21T09:05:13;10.10;99.90
18456;DHT22;9357;49.900;8.208;2023-11-21T09:06:47;10.10;99.90
18456;DHT22;9357;49.900;8.208;2023-11-21T09:08:20;10.10;99.90
18456;DHT22;9357;49.900;8.208;2023-11-21T09:09:53;10.10;99.90
18456;DHT22;9357;49.900;8.208;2023-11-21T09:11:26;10.00;99.90
18456;DHT22;9357;49.900;8.208;2023-11-21T09:13:04;10.00;99.90
18456;DHT22;9357;49.900;8.208;2023-11-21T09:14:36;10.00;99.90
18456;DHT22;9357;49.900;8.208;2023-11-21T09:16:09;10.00;99.90
18456;DHT22;9357;49.900;8.208;2023-11-21T09:17:42;10.00;99.90
18456;DHT22;9357;49.900;8.208;2023-11-21T09:19:16;10.00;99.90
18456;DHT22;9357;49.900;8.208;2023-11-21T09:20:48;10.00;99.90
18456;DHT22;9357;49.900;8.208;2023-11-21T09:22:22;10.00;99.90
18456;DHT22;9357;49.900;8.208;2023-11-21T09:23:56;10.00;99.90
18456;DHT22;9357;49.900;8.208;2023-11-21T09:25:29;10.00;99.90
18456;DHT22;9357;49.900;8.208;2023-11-21T09:27:01;10.10;99.90
18456;DHT22;9357;49.900;8.208;2023-11-21T09:28:34;10.10;99.90
18456;DHT22;9357;49.900;8.208;2023-11-21T09:30:09;10.10;99.90
18456;DHT22;9357;49.900;8.208;2023-11-21T09:31:42;10.10;99.90
18456;DHT22;9357;49.900;8.208;2023-11-21T09:33:15;10.10;99.90
18456;DHT22;9357;49.900;8.208;2023-11-21T09:34:47;10.10;99.90
18456;DHT22;9357;49.900;8.208;2023-11-21T09:36:20;10.10;99.90
18456;DHT22;9357;49.900;8.208;2023-11-21T09:37:56;10.10;99.90
18456;DHT22;9357;49.900;8.208;2023-11-21T09:39:29;10.10;99.90
18456;DHT22;9357;49.900;8.208;2023-11-21T09:41:04;10.10;99.90
18456;DHT22;9357;49.900;8.208;2023-11-21T09:42:40;10.20;99.90
18456;DHT22;9357;49.900;8.208;2023-11-21T09:44:13;10.20;99.90
18456;DHT22;9357;49.900;8.208;2023-11-21T09:45:56;10.20;99.90
18456;DHT22;9357;49.900;8.208;2023-11-21T09:47:29;10.20;99.90
18456;DHT22;9357;49.900;8.208;2023-11-21T09:49:02;10.20;99.90
18456;DHT22;9357;49.900;8.208;2023-11-21T09:50:39;10.20;99.90
18456;DHT22;9357;49.900;8.208;2023-11-21T09:52:18;10.30;99.90
18456;DHT22;9357;49.900;8.208;2023-11-21T09:53:54;10.30;99.90
18456;DHT22;9357;49.900;8.208;2023-11-21T09:55:27;10.30;99.90
18456;DHT22;9357;49.900;8.208;2023-11-21T09:57:02;10.30;99.90
18456;DHT22;9357;49.900;8.208;2023-11-21T09:58:34;10.30;99.90
18456;DHT22;9357;49.900;8.208;2023-11-21T10:00:08;10.30;99.90
18456;DHT22;9357;49.900;8.208;2023-11-21T10:01:43;10.30;99.90
18456;DHT22;9357;49.900;8.208;2023-11-21T10:03:16;10.40;99.90
18456;DHT22;9357;49.900;8.208;2023-11-21T10:04:48;10.40;99.90